Aviation Digital Data Service (ADDS)

Output produced by TAFs form (2015 UTC 01 August 2015)
found at http://aviationweather.gov/adds/tafs/
 
KGUP 011740Z 0118/0218 24007KT P6SM VCSH SCT080 BKN100 
     TEMPO 0121/0201 VRB15G25KT -TSRA BKN060CB 
     FM020200 20007KT P6SM VCSH BKN070 
     FM020600 VRB05KT P6SM BKN070